sensor_id;sensor_type;location;lat;lon;timestamp;P1;durP1;ratioP1;P2;durP2;ratioP2
33826;SDS011;20128;45.582;5.298;2023-09-07T00:01:32;7.82;;;3.35;;
33826;SDS011;20128;45.582;5.298;2023-09-07T00:03:58;8.60;;;3.95;;
33826;SDS011;20128;45.582;5.298;2023-09-07T00:06:24;11.25;;;4.00;;
33826;SDS011;20128;45.582;5.298;2023-09-07T00:08:50;8.75;;;3.70;;
33826;SDS011;20128;45.582;5.298;2023-09-07T00:11:16;7.97;;;3.85;;
33826;SDS011;20128;45.582;5.298;2023-09-07T00:13:42;6.43;;;3.63;;
33826;SDS011;20128;45.582;5.298;2023-09-07T00:16:07;9.25;;;4.03;;
33826;SDS011;20128;45.582;5.298;2023-09-07T00:18:33;10.07;;;3.50;;
33826;SDS011;20128;45.582;5.298;2023-09-07T00:20:59;13.13;;;3.67;;
33826;SDS011;20128;45.582;5.298;2023-09-07T00:23:26;6.68;;;3.38;;
33826;SDS011;20128;45.582;5.298;2023-09-07T00:25:52;6.38;;;3.25;;
33826;SDS011;20128;45.582;5.298;2023-09-07T00:28:18;11.95;;;3.30;;
33826;SDS011;20128;45.582;5.298;2023-09-07T00:30:43;6.32;;;3.83;;
33826;SDS011;20128;45.582;5.298;2023-09-07T00:33:09;8.02;;;3.90;;
33826;SDS011;20128;45.582;5.298;2023-09-07T00:35:35;11.88;;;3.80;;
33826;SDS011;20128;45.582;5.298;2023-09-07T00:38:01;8.60;;;3.50;;
33826;SDS011;20128;45.582;5.298;2023-09-07T00:40:27;11.82;;;3.28;;
33826;SDS011;20128;45.582;5.298;2023-09-07T00:42:53;10.00;;;3.70;;
33826;SDS011;20128;45.582;5.298;2023-09-07T00:45:19;10.20;;;3.55;;
33826;SDS011;20128;45.582;5.298;2023-09-07T00:47:45;9.98;;;3.60;;
33826;SDS011;20128;45.582;5.298;2023-09-07T00:50:11;7.88;;;3.50;;
33826;SDS011;20128;45.582;5.298;2023-09-07T00:52:38;9.57;;;3.25;;
33826;SDS011;20128;45.582;5.298;2023-09-07T00:55:07;9.80;;;3.65;;
33826;SDS011;20128;45.582;5.298;2023-09-07T00:57:33;5.38;;;3.30;;
33826;SDS011;20128;45.582;5.298;2023-09-07T01:00:00;9.35;;;3.22;;
33826;SDS011;20128;45.582;5.298;2023-09-07T01:02:26;5.20;;;3.33;;
33826;SDS011;20128;45.582;5.298;2023-09-07T01:04:51;6.32;;;3.45;;
33826;SDS011;20128;45.582;5.298;2023-09-07T01:07:21;6.70;;;3.60;;
33826;SDS011;20128;45.582;5.298;2023-09-07T01:09:54;12.00;;;3.78;;
33826;SDS011;20128;45.582;5.298;2023-09-07T01:12:22;9.32;;;3.58;;
33826;SDS011;20128;45.582;5.298;2023-09-07T01:14:48;9.05;;;4.05;;
33826;SDS011;20128;45.582;5.298;2023-09-07T01:17:14;10.95;;;3.90;;
33826;SDS011;20128;45.582;5.298;2023-09-07T01:19:40;9.63;;;3.30;;
33826;SDS011;20128;45.582;5.298;2023-09-07T01:22:07;13.75;;;3.95;;
33826;SDS011;20128;45.582;5.298;2023-09-07T01:24:33;8.30;;;3.53;;
33826;SDS011;20128;45.582;5.298;2023-09-07T01:27:02;6.82;;;3.70;;
33826;SDS011;20128;45.582;5.298;2023-09-07T01:29:29;13.55;;;3.72;;
33826;SDS011;20128;45.582;5.298;2023-09-07T01:31:55;7.88;;;4.22;;
33826;SDS011;20128;45.582;5.298;2023-09-07T01:34:22;8.45;;;3.85;;
33826;SDS011;20128;45.582;5.298;2023-09-07T01:36:48;8.77;;;3.33;;
33826;SDS011;20128;45.582;5.298;2023-09-07T01:39:14;5.47;;;3.33;;
33826;SDS011;20128;45.582;5.298;2023-09-07T01:41:40;9.57;;;3.63;;
33826;SDS011;20128;45.582;5.298;2023-09-07T01:44:05;6.43;;;3.40;;
33826;SDS011;20128;45.582;5.298;2023-09-07T01:46:31;11.73;;;3.72;;
33826;SDS011;20128;45.582;5.298;2023-09-07T01:48:57;4.57;;;3.38;;
33826;SDS011;20128;45.582;5.298;2023-09-07T01:51:22;14.32;;;3.65;;
33826;SDS011;20128;45.582;5.298;2023-09-07T01:53:48;6.60;;;3.72;;
33826;SDS011;20128;45.582;5.298;2023-09-07T01:56:15;6.43;;;3.65;;
33826;SDS011;20128;45.582;5.298;2023-09-07T01:58:41;5.43;;;3.28;;
33826;SDS011;20128;45.582;5.298;2023-09-07T02:01:07;6.40;;;3.60;;
33826;SDS011;20128;45.582;5.298;2023-09-07T02:03:34;8.77;;;3.55;;
33826;SDS011;20128;45.582;5.298;2023-09-07T02:06:00;6.30;;;3.33;;
33826;SDS011;20128;45.582;5.298;2023-09-07T02:08:25;7.07;;;3.20;;
33826;SDS011;20128;45.582;5.298;2023-09-07T02:10:51;7.03;;;3.55;;
33826;SDS011;20128;45.582;5.298;2023-09-07T02:13:16;10.63;;;3.90;;
33826;SDS011;20128;45.582;5.298;2023-09-07T02:15:42;8.75;;;3.75;;
33826;SDS011;20128;45.582;5.298;2023-09-07T02:18:08;10.02;;;3.78;;
33826;SDS011;20128;45.582;5.298;2023-09-07T02:20:33;6.30;;;3.30;;
33826;SDS011;20128;45.582;5.298;2023-09-07T02:22:59;4.80;;;3.50;;
33826;SDS011;20128;45.582;5.298;2023-09-07T02:25:25;5.93;;;3.55;;
33826;SDS011;20128;45.582;5.298;2023-09-07T02:27:52;4.93;;;2.90;;
33826;SDS011;20128;45.582;5.298;2023-09-07T02:30:18;6.38;;;3.92;;
33826;SDS011;20128;45.582;5.298;2023-09-07T02:32:44;7.43;;;4.00;;
33826;SDS011;20128;45.582;5.298;2023-09-07T02:35:09;4.72;;;3.30;;
33826;SDS011;20128;45.582;5.298;2023-09-07T02:37:36;9.93;;;3.90;;
33826;SDS011;20128;45.582;5.298;2023-09-07T02:40:02;5.38;;;3.45;;
33826;SDS011;20128;45.582;5.298;2023-09-07T02:42:32;5.25;;;3.78;;
33826;SDS011;20128;45.582;5.298;2023-09-07T02:44:58;4.85;;;3.42;;
33826;SDS011;20128;45.582;5.298;2023-09-07T02:47:23;7.88;;;3.70;;
33826;SDS011;20128;45.582;5.298;2023-09-07T02:49:49;7.63;;;3.47;;
33826;SDS011;20128;45.582;5.298;2023-09-07T02:52:15;7.28;;;3.95;;
33826;SDS011;20128;45.582;5.298;2023-09-07T02:54:41;5.43;;;3.70;;
33826;SDS011;20128;45.582;5.298;2023-09-07T02:57:07;9.88;;;3.53;;
33826;SDS011;20128;45.582;5.298;2023-09-07T02:59:32;5.20;;;3.45;;
33826;SDS011;20128;45.582;5.298;2023-09-07T03:01:58;8.20;;;3.85;;
33826;SDS011;20128;45.582;5.298;2023-09-07T03:04:24;13.93;;;3.72;;
33826;SDS011;20128;45.582;5.298;2023-09-07T03:06:49;6.75;;;3.50;;
33826;SDS011;20128;45.582;5.298;2023-09-07T03:09:15;5.70;;;3.17;;
33826;SDS011;20128;45.582;5.298;2023-09-07T03:11:40;9.40;;;3.88;;
33826;SDS011;20128;45.582;5.298;2023-09-07T03:14:06;7.30;;;3.88;;
33826;SDS011;20128;45.582;5.298;2023-09-07T03:16:32;10.57;;;4.32;;
33826;SDS011;20128;45.582;5.298;2023-09-07T03:18:57;8.40;;;3.22;;
33826;SDS011;20128;45.582;5.298;2023-09-07T03:21:23;7.43;;;3.88;;
33826;SDS011;20128;45.582;5.298;2023-09-07T03:23:54;5.22;;;3.58;;
33826;SDS011;20128;45.582;5.298;2023-09-07T03:26:21;8.05;;;4.00;;
33826;SDS011;20128;45.582;5.298;2023-09-07T03:28:46;7.68;;;3.92;;
33826;SDS011;20128;45.582;5.298;2023-09-07T03:31:12;9.32;;;3.45;;
33826;SDS011;20128;45.582;5.298;2023-09-07T03:33:38;16.63;;;4.30;;
33826;SDS011;20128;45.582;5.298;2023-09-07T03:36:03;7.63;;;3.85;;
33826;SDS011;20128;45.582;5.298;2023-09-07T03:38:29;7.05;;;3.75;;
33826;SDS011;20128;45.582;5.298;2023-09-07T03:40:55;19.40;;;4.65;;
33826;SDS011;20128;45.582;5.298;2023-09-07T03:43:21;9.27;;;3.92;;
33826;SDS011;20128;45.582;5.298;2023-09-07T03:45:46;5.25;;;3.22;;
33826;SDS011;20128;45.582;5.298;2023-09-07T03:48:12;8.70;;;4.15;;
33826;SDS011;20128;45.582;5.298;2023-09-07T03:50:37;8.43;;;3.97;;
33826;SDS011;20128;45.582;5.298;2023-09-07T03:53:03;11.25;;;4.28;;
33826;SDS011;20128;45.582;5.298;2023-09-07T03:55:29;7.93;;;3.70;;
33826;SDS011;20128;45.582;5.298;2023-09-07T03:57:54;15.77;;;3.80;;
33826;SDS011;20128;45.582;5.298;2023-09-07T04:00:20;6.88;;;3.45;;
33826;SDS011;20128;45.582;5.298;2023-09-07T04:02:46;8.90;;;3.85;;
33826;SDS011;20128;45.582;5.298;2023-09-07T04:05:11;6.32;;;3.55;;
33826;SDS011;20128;45.582;5.298;2023-09-07T04:07:37;6.45;;;3.92;;
33826;SDS011;20128;45.582;5.298;2023-09-07T04:10:04;6.47;;;3.63;;
33826;SDS011;20128;45.582;5.298;2023-09-07T04:12:30;14.27;;;4.40;;
33826;SDS011;20128;45.582;5.298;2023-09-07T04:14:56;11.77;;;3.67;;
33826;SDS011;20128;45.582;5.298;2023-09-07T04:17:22;4.80;;;3.40;;
33826;SDS011;20128;45.582;5.298;2023-09-07T04:19:47;4.88;;;3.63;;
33826;SDS011;20128;45.582;5.298;2023-09-07T04:22:13;6.88;;;3.83;;
33826;SDS011;20128;45.582;5.298;2023-09-07T04:24:39;10.30;;;4.55;;
33826;SDS011;20128;45.582;5.298;2023-09-07T04:27:04;10.27;;;3.92;;
33826;SDS011;20128;45.582;5.298;2023-09-07T04:29:30;6.30;;;3.35;;
33826;SDS011;20128;45.582;5.298;2023-09-07T04:31:55;8.45;;;3.50;;
33826;SDS011;20128;45.582;5.298;2023-09-07T04:34:22;8.50;;;4.45;;
33826;SDS011;20128;45.582;5.298;2023-09-07T04:36:48;7.47;;;4.25;;
33826;SDS011;20128;45.582;5.298;2023-09-07T04:39:13;6.78;;;3.58;;
33826;SDS011;20128;45.582;5.298;2023-09-07T04:41:39;9.57;;;4.07;;
33826;SDS011;20128;45.582;5.298;2023-09-07T04:44:05;13.32;;;4.70;;
33826;SDS011;20128;45.582;5.298;2023-09-07T04:46:31;6.50;;;4.13;;
33826;SDS011;20128;45.582;5.298;2023-09-07T04:48:57;7.45;;;3.58;;
33826;SDS011;20128;45.582;5.298;2023-09-07T04:51:22;9.18;;;4.15;;
33826;SDS011;20128;45.582;5.298;2023-09-07T04:53:50;6.10;;;3.83;;
33826;SDS011;20128;45.582;5.298;2023-09-07T04:56:16;15.20;;;4.43;;
33826;SDS011;20128;45.582;5.298;2023-09-07T04:58:42;12.43;;;4.68;;
33826;SDS011;20128;45.582;5.298;2023-09-07T05:01:09;11.07;;;4.78;;
33826;SDS011;20128;45.582;5.298;2023-09-07T05:03:36;8.75;;;3.50;;
33826;SDS011;20128;45.582;5.298;2023-09-07T05:06:03;14.68;;;4.07;;
33826;SDS011;20128;45.582;5.298;2023-09-07T05:08:29;13.20;;;4.18;;
33826;SDS011;20128;45.582;5.298;2023-09-07T05:10:56;7.70;;;3.70;;
33826;SDS011;20128;45.582;5.298;2023-09-07T05:13:23;13.38;;;4.55;;
33826;SDS011;20128;45.582;5.298;2023-09-07T05:15:50;8.90;;;4.55;;
33826;SDS011;20128;45.582;5.298;2023-09-07T05:18:17;10.95;;;4.50;;
33826;SDS011;20128;45.582;5.298;2023-09-07T05:20:43;9.50;;;4.32;;
33826;SDS011;20128;45.582;5.298;2023-09-07T05:23:13;11.88;;;4.57;;
33826;SDS011;20128;45.582;5.298;2023-09-07T05:25:50;14.05;;;4.72;;
33826;SDS011;20128;45.582;5.298;2023-09-07T05:28:17;9.93;;;4.55;;
33826;SDS011;20128;45.582;5.298;2023-09-07T05:30:44;17.52;;;4.50;;
33826;SDS011;20128;45.582;5.298;2023-09-07T05:33:10;11.93;;;4.40;;
33826;SDS011;20128;45.582;5.298;2023-09-07T05:35:36;15.35;;;4.63;;
33826;SDS011;20128;45.582;5.298;2023-09-07T05:38:03;14.95;;;4.72;;
33826;SDS011;20128;45.582;5.298;2023-09-07T05:40:33;13.48;;;4.50;;
33826;SDS011;20128;45.582;5.298;2023-09-07T05:42:59;14.07;;;5.32;;
33826;SDS011;20128;45.582;5.298;2023-09-07T05:45:25;13.48;;;4.70;;
33826;SDS011;20128;45.582;5.298;2023-09-07T05:47:50;16.58;;;5.70;;
33826;SDS011;20128;45.582;5.298;2023-09-07T05:50:16;16.17;;;4.75;;
33826;SDS011;20128;45.582;5.298;2023-09-07T05:52:42;25.17;;;5.53;;
33826;SDS011;20128;45.582;5.298;2023-09-07T05:55:07;15.43;;;5.07;;
33826;SDS011;20128;45.582;5.298;2023-09-07T05:57:33;22.77;;;4.55;;
33826;SDS011;20128;45.582;5.298;2023-09-07T05:59:59;12.68;;;5.00;;
33826;SDS011;20128;45.582;5.298;2023-09-07T06:02:24;16.20;;;5.25;;
33826;SDS011;20128;45.582;5.298;2023-09-07T06:04:50;28.10;;;6.15;;
33826;SDS011;20128;45.582;5.298;2023-09-07T06:07:15;23.58;;;5.55;;
33826;SDS011;20128;45.582;5.298;2023-09-07T06:09:41;17.45;;;5.18;;
33826;SDS011;20128;45.582;5.298;2023-09-07T06:12:07;19.83;;;5.72;;
33826;SDS011;20128;45.582;5.298;2023-09-07T06:14:32;17.10;;;5.78;;
33826;SDS011;20128;45.582;5.298;2023-09-07T06:16:58;21.60;;;5.22;;
33826;SDS011;20128;45.582;5.298;2023-09-07T06:19:23;15.50;;;4.35;;
33826;SDS011;20128;45.582;5.298;2023-09-07T06:21:49;10.90;;;4.68;;
33826;SDS011;20128;45.582;5.298;2023-09-07T06:24:15;14.52;;;4.20;;
33826;SDS011;20128;45.582;5.298;2023-09-07T06:26:40;13.05;;;4.93;;
33826;SDS011;20128;45.582;5.298;2023-09-07T06:29:07;13.52;;;5.25;;
33826;SDS011;20128;45.582;5.298;2023-09-07T06:31:33;22.35;;;5.63;;
33826;SDS011;20128;45.582;5.298;2023-09-07T06:33:58;16.77;;;4.60;;
33826;SDS011;20128;45.582;5.298;2023-09-07T06:36:24;11.57;;;4.97;;
33826;SDS011;20128;45.582;5.298;2023-09-07T06:38:50;11.23;;;4.20;;
33826;SDS011;20128;45.582;5.298;2023-09-07T06:41:15;13.63;;;5.13;;
33826;SDS011;20128;45.582;5.298;2023-09-07T06:43:41;11.43;;;4.63;;
33826;SDS011;20128;45.582;5.298;2023-09-07T06:46:07;19.02;;;5.30;;
33826;SDS011;20128;45.582;5.298;2023-09-07T06:48:34;16.95;;;5.00;;
33826;SDS011;20128;45.582;5.298;2023-09-07T06:51:03;10.98;;;5.35;;
33826;SDS011;20128;45.582;5.298;2023-09-07T06:53:30;11.18;;;4.53;;
33826;SDS011;20128;45.582;5.298;2023-09-07T06:55:59;10.00;;;4.75;;
33826;SDS011;20128;45.582;5.298;2023-09-07T06:58:25;9.85;;;4.82;;
33826;SDS011;20128;45.582;5.298;2023-09-07T07:00:51;9.48;;;4.70;;
33826;SDS011;20128;45.582;5.298;2023-09-07T07:03:17;14.10;;;4.30;;
33826;SDS011;20128;45.582;5.298;2023-09-07T07:05:43;10.30;;;4.25;;
33826;SDS011;20128;45.582;5.298;2023-09-07T07:08:09;14.10;;;4.95;;
33826;SDS011;20128;45.582;5.298;2023-09-07T07:10:35;10.27;;;4.63;;
33826;SDS011;20128;45.582;5.298;2023-09-07T07:13:00;8.40;;;4.20;;
33826;SDS011;20128;45.582;5.298;2023-09-07T07:15:26;11.10;;;4.10;;
33826;SDS011;20128;45.582;5.298;2023-09-07T07:17:52;9.68;;;4.25;;
33826;SDS011;20128;45.582;5.298;2023-09-07T07:20:17;10.73;;;4.10;;
33826;SDS011;20128;45.582;5.298;2023-09-07T07:22:43;9.20;;;4.10;;
33826;SDS011;20128;45.582;5.298;2023-09-07T07:25:08;9.10;;;3.90;;
33826;SDS011;20128;45.582;5.298;2023-09-07T07:27:35;10.43;;;3.72;;
33826;SDS011;20128;45.582;5.298;2023-09-07T07:30:01;12.90;;;3.92;;
33826;SDS011;20128;45.582;5.298;2023-09-07T07:32:27;8.77;;;3.15;;
33826;SDS011;20128;45.582;5.298;2023-09-07T07:34:53;6.22;;;3.00;;
33826;SDS011;20128;45.582;5.298;2023-09-07T07:37:19;9.98;;;3.70;;
33826;SDS011;20128;45.582;5.298;2023-09-07T07:39:44;15.90;;;3.58;;
33826;SDS011;20128;45.582;5.298;2023-09-07T07:42:10;10.75;;;3.38;;
33826;SDS011;20128;45.582;5.298;2023-09-07T07:44:35;7.40;;;2.75;;
33826;SDS011;20128;45.582;5.298;2023-09-07T07:47:01;10.73;;;3.65;;
33826;SDS011;20128;45.582;5.298;2023-09-07T07:49:26;8.90;;;3.20;;
33826;SDS011;20128;45.582;5.298;2023-09-07T07:51:52;8.45;;;2.88;;
33826;SDS011;20128;45.582;5.298;2023-09-07T07:54:20;5.63;;;3.40;;
33826;SDS011;20128;45.582;5.298;2023-09-07T07:56:47;9.73;;;3.42;;
33826;SDS011;20128;45.582;5.298;2023-09-07T07:59:13;7.38;;;3.17;;
33826;SDS011;20128;45.582;5.298;2023-09-07T08:01:39;7.97;;;3.10;;
33826;SDS011;20128;45.582;5.298;2023-09-07T08:04:05;13.30;;;4.03;;
33826;SDS011;20128;45.582;5.298;2023-09-07T08:06:32;11.43;;;3.45;;
33826;SDS011;20128;45.582;5.298;2023-09-07T08:08:57;7.00;;;3.22;;
33826;SDS011;20128;45.582;5.298;2023-09-07T08:11:23;14.75;;;3.22;;
33826;SDS011;20128;45.582;5.298;2023-09-07T08:13:49;6.10;;;3.67;;
33826;SDS011;20128;45.582;5.298;2023-09-07T08:16:15;10.40;;;3.42;;
33826;SDS011;20128;45.582;5.298;2023-09-07T08:18:41;7.78;;;3.78;;
33826;SDS011;20128;45.582;5.298;2023-09-07T08:21:06;11.27;;;3.40;;
33826;SDS011;20128;45.582;5.298;2023-09-07T08:23:32;18.50;;;3.53;;
33826;SDS011;20128;45.582;5.298;2023-09-07T08:25:57;8.45;;;3.47;;
33826;SDS011;20128;45.582;5.298;2023-09-07T08:28:23;7.07;;;3.13;;
33826;SDS011;20128;45.582;5.298;2023-09-07T08:30:50;10.85;;;3.45;;
33826;SDS011;20128;45.582;5.298;2023-09-07T08:33:18;8.02;;;3.63;;
33826;SDS011;20128;45.582;5.298;2023-09-07T08:35:44;8.27;;;3.22;;
33826;SDS011;20128;45.582;5.298;2023-09-07T08:38:10;7.68;;;3.58;;
33826;SDS011;20128;45.582;5.298;2023-09-07T08:40:37;8.30;;;3.60;;
33826;SDS011;20128;45.582;5.298;2023-09-07T08:43:06;11.95;;;3.45;;
33826;SDS011;20128;45.582;5.298;2023-09-07T08:45:37;6.65;;;3.78;;
33826;SDS011;20128;45.582;5.298;2023-09-07T08:48:06;9.10;;;3.92;;
33826;SDS011;20128;45.582;5.298;2023-09-07T08:50:35;10.73;;;3.75;;
33826;SDS011;20128;45.582;5.298;2023-09-07T08:53:03;8.00;;;3.75;;
33826;SDS011;20128;45.582;5.298;2023-09-07T08:55:29;11.25;;;3.63;;
33826;SDS011;20128;45.582;5.298;2023-09-07T08:57:55;8.52;;;3.60;;
33826;SDS011;20128;45.582;5.298;2023-09-07T09:00:21;10.00;;;3.38;;
33826;SDS011;20128;45.582;5.298;2023-09-07T09:02:48;11.57;;;3.50;;
33826;SDS011;20128;45.582;5.298;2023-09-07T09:05:15;10.55;;;3.97;;
33826;SDS011;20128;45.582;5.298;2023-09-07T09:07:43;9.00;;;3.88;;
33826;SDS011;20128;45.582;5.298;2023-09-07T09:10:09;6.68;;;3.55;;
33826;SDS011;20128;45.582;5.298;2023-09-07T09:12:35;6.72;;;3.95;;
33826;SDS011;20128;45.582;5.298;2023-09-07T09:15:01;7.10;;;3.80;;
33826;SDS011;20128;45.582;5.298;2023-09-07T09:17:28;7.20;;;4.20;;
33826;SDS011;20128;45.582;5.298;2023-09-07T09:19:54;8.52;;;3.67;;
33826;SDS011;20128;45.582;5.298;2023-09-07T09:22:19;6.68;;;3.88;;
33826;SDS011;20128;45.582;5.298;2023-09-07T09:24:49;7.55;;;3.55;;
33826;SDS011;20128;45.582;5.298;2023-09-07T09:27:15;13.52;;;3.83;;
33826;SDS011;20128;45.582;5.298;2023-09-07T09:29:42;8.25;;;3.67;;
33826;SDS011;20128;45.582;5.298;2023-09-07T09:32:07;4.93;;;3.58;;
33826;SDS011;20128;45.582;5.298;2023-09-07T09:34:34;9.73;;;3.35;;
33826;SDS011;20128;45.582;5.298;2023-09-07T09:37:03;9.07;;;4.15;;
33826;SDS011;20128;45.582;5.298;2023-09-07T09:39:29;6.78;;;3.60;;
33826;SDS011;20128;45.582;5.298;2023-09-07T09:41:55;5.25;;;3.40;;
33826;SDS011;20128;45.582;5.298;2023-09-07T09:44:22;12.15;;;3.75;;
33826;SDS011;20128;45.582;5.298;2023-09-07T09:46:52;8.40;;;3.85;;
33826;SDS011;20128;45.582;5.298;2023-09-07T09:49:21;6.38;;;3.92;;
33826;SDS011;20128;45.582;5.298;2023-09-07T09:51:48;8.32;;;4.05;;
33826;SDS011;20128;45.582;5.298;2023-09-07T09:54:16;6.45;;;4.07;;
33826;SDS011;20128;45.582;5.298;2023-09-07T09:56:45;6.88;;;3.50;;
33826;SDS011;20128;45.582;5.298;2023-09-07T09:59:12;10.43;;;3.55;;
33826;SDS011;20128;45.582;5.298;2023-09-07T10:01:45;7.75;;;3.53;;
33826;SDS011;20128;45.582;5.298;2023-09-07T10:04:14;8.82;;;3.35;;
33826;SDS011;20128;45.582;5.298;2023-09-07T10:06:55;14.77;;;3.55;;
33826;SDS011;20128;45.582;5.298;2023-09-07T10:09:28;9.57;;;3.42;;
33826;SDS011;20128;45.582;5.298;2023-09-07T10:11:57;7.78;;;4.10;;
33826;SDS011;20128;45.582;5.298;2023-09-07T10:14:24;7.32;;;3.35;;
33826;SDS011;20128;45.582;5.298;2023-09-07T10:16:51;8.75;;;4.03;;
33826;SDS011;20128;45.582;5.298;2023-09-07T10:19:21;8.10;;;4.07;;
33826;SDS011;20128;45.582;5.298;2023-09-07T10:21:48;11.70;;;3.50;;
33826;SDS011;20128;45.582;5.298;2023-09-07T10:24:29;8.20;;;3.47;;
33826;SDS011;20128;45.582;5.298;2023-09-07T10:27:04;6.07;;;3.20;;
33826;SDS011;20128;45.582;5.298;2023-09-07T10:29:44;6.47;;;3.70;;
33826;SDS011;20128;45.582;5.298;2023-09-07T10:32:11;7.85;;;3.72;;
33826;SDS011;20128;45.582;5.298;2023-09-07T10:34:40;9.55;;;3.60;;
33826;SDS011;20128;45.582;5.298;2023-09-07T10:37:12;11.48;;;4.00;;
33826;SDS011;20128;45.582;5.298;2023-09-07T10:39:39;16.50;;;5.88;;
33826;SDS011;20128;45.582;5.298;2023-09-07T10:42:07;5.43;;;3.90;;
33826;SDS011;20128;45.582;5.298;2023-09-07T10:44:33;5.82;;;3.70;;
33826;SDS011;20128;45.582;5.298;2023-09-07T10:46:58;8.60;;;3.95;;
33826;SDS011;20128;45.582;5.298;2023-09-07T10:49:25;5.63;;;3.83;;
33826;SDS011;20128;45.582;5.298;2023-09-07T10:51:51;5.78;;;3.42;;
33826;SDS011;20128;45.582;5.298;2023-09-07T10:54:17;3.55;;;3.15;;
33826;SDS011;20128;45.582;5.298;2023-09-07T10:56:48;7.43;;;4.13;;
33826;SDS011;20128;45.582;5.298;2023-09-07T10:59:14;5.43;;;3.50;;
33826;SDS011;20128;45.582;5.298;2023-09-07T11:01:41;10.50;;;2.80;;
33826;SDS011;20128;45.582;5.298;2023-09-07T11:04:08;10.65;;;3.45;;
33826;SDS011;20128;45.582;5.298;2023-09-07T11:06:36;6.55;;;3.20;;
33826;SDS011;20128;45.582;5.298;2023-09-07T11:09:02;9.70;;;3.58;;
33826;SDS011;20128;45.582;5.298;2023-09-07T11:11:34;5.88;;;3.30;;
33826;SDS011;20128;45.582;5.298;2023-09-07T11:14:01;3.58;;;2.70;;
33826;SDS011;20128;45.582;5.298;2023-09-07T11:16:30;10.57;;;3.38;;
33826;SDS011;20128;45.582;5.298;2023-09-07T11:19:01;11.10;;;3.35;;
33826;SDS011;20128;45.582;5.298;2023-09-07T11:23:59;6.60;;;3.15;;
33826;SDS011;20128;45.582;5.298;2023-09-07T11:26:25;6.07;;;3.40;;
33826;SDS011;20128;45.582;5.298;2023-09-07T11:28:51;8.10;;;3.15;;
33826;SDS011;20128;45.582;5.298;2023-09-07T11:31:20;10.10;;;3.25;;
33826;SDS011;20128;45.582;5.298;2023-09-07T11:33:46;7.25;;;3.58;;
33826;SDS011;20128;45.582;5.298;2023-09-07T11:36:14;4.95;;;2.85;;
33826;SDS011;20128;45.582;5.298;2023-09-07T11:38:42;6.65;;;2.95;;
33826;SDS011;20128;45.582;5.298;2023-09-07T11:41:08;4.10;;;2.90;;
33826;SDS011;20128;45.582;5.298;2023-09-07T11:43:34;8.68;;;3.33;;
33826;SDS011;20128;45.582;5.298;2023-09-07T11:46:00;6.00;;;3.00;;
33826;SDS011;20128;45.582;5.298;2023-09-07T11:48:26;9.43;;;3.55;;
33826;SDS011;20128;45.582;5.298;2023-09-07T11:50:53;6.18;;;3.13;;
33826;SDS011;20128;45.582;5.298;2023-09-07T11:53:19;4.30;;;2.90;;
33826;SDS011;20128;45.582;5.298;2023-09-07T11:55:44;5.43;;;3.17;;
33826;SDS011;20128;45.582;5.298;2023-09-07T11:58:10;6.03;;;2.80;;
33826;SDS011;20128;45.582;5.298;2023-09-07T12:00:36;5.07;;;2.85;;
33826;SDS011;20128;45.582;5.298;2023-09-07T12:03:02;6.93;;;2.95;;
33826;SDS011;20128;45.582;5.298;2023-09-07T12:05:27;3.92;;;3.03;;
33826;SDS011;20128;45.582;5.298;2023-09-07T12:07:53;7.82;;;3.22;;
33826;SDS011;20128;45.582;5.298;2023-09-07T12:10:19;9.80;;;3.63;;
33826;SDS011;20128;45.582;5.298;2023-09-07T12:12:45;6.53;;;3.00;;
33826;SDS011;20128;45.582;5.298;2023-09-07T12:15:11;8.82;;;3.50;;
33826;SDS011;20128;45.582;5.298;2023-09-07T12:17:36;7.97;;;2.78;;
33826;SDS011;20128;45.582;5.298;2023-09-07T12:20:03;9.73;;;2.95;;
33826;SDS011;20128;45.582;5.298;2023-09-07T12:22:35;10.45;;;3.40;;
33826;SDS011;20128;45.582;5.298;2023-09-07T12:25:06;5.18;;;2.75;;
33826;SDS011;20128;45.582;5.298;2023-09-07T12:27:33;6.75;;;2.78;;
33826;SDS011;20128;45.582;5.298;2023-09-07T12:29:59;6.35;;;2.95;;
33826;SDS011;20128;45.582;5.298;2023-09-07T12:32:25;5.78;;;2.58;;
33826;SDS011;20128;45.582;5.298;2023-09-07T12:34:51;4.38;;;3.17;;
33826;SDS011;20128;45.582;5.298;2023-09-07T12:37:18;6.15;;;3.20;;
33826;SDS011;20128;45.582;5.298;2023-09-07T12:39:48;7.68;;;2.90;;
33826;SDS011;20128;45.582;5.298;2023-09-07T12:42:14;6.18;;;3.45;;
33826;SDS011;20128;45.582;5.298;2023-09-07T12:44:40;8.77;;;3.63;;
33826;SDS011;20128;45.582;5.298;2023-09-07T12:47:05;13.00;;;3.20;;
33826;SDS011;20128;45.582;5.298;2023-09-07T12:49:31;8.93;;;2.97;;
33826;SDS011;20128;45.582;5.298;2023-09-07T12:51:56;9.30;;;3.22;;
33826;SDS011;20128;45.582;5.298;2023-09-07T12:54:22;5.60;;;2.72;;
33826;SDS011;20128;45.582;5.298;2023-09-07T12:56:48;5.22;;;2.60;;
33826;SDS011;20128;45.582;5.298;2023-09-07T12:59:14;4.40;;;2.67;;
33826;SDS011;20128;45.582;5.298;2023-09-07T13:01:39;11.45;;;2.80;;
33826;SDS011;20128;45.582;5.298;2023-09-07T13:04:05;4.53;;;3.03;;
33826;SDS011;20128;45.582;5.298;2023-09-07T13:06:31;7.65;;;2.80;;
33826;SDS011;20128;45.582;5.298;2023-09-07T13:08:56;5.20;;;2.60;;
33826;SDS011;20128;45.582;5.298;2023-09-07T13:11:22;5.15;;;2.95;;
33826;SDS011;20128;45.582;5.298;2023-09-07T13:13:48;10.10;;;3.03;;
33826;SDS011;20128;45.582;5.298;2023-09-07T13:16:14;4.22;;;2.47;;
33826;SDS011;20128;45.582;5.298;2023-09-07T13:18:39;5.03;;;2.58;;
33826;SDS011;20128;45.582;5.298;2023-09-07T13:21:05;4.20;;;2.80;;
33826;SDS011;20128;45.582;5.298;2023-09-07T13:23:31;6.35;;;2.90;;
33826;SDS011;20128;45.582;5.298;2023-09-07T13:25:57;3.05;;;2.75;;
33826;SDS011;20128;45.582;5.298;2023-09-07T13:28:25;7.68;;;2.88;;
33826;SDS011;20128;45.582;5.298;2023-09-07T13:30:50;6.68;;;2.95;;
33826;SDS011;20128;45.582;5.298;2023-09-07T13:33:16;5.45;;;2.67;;
33826;SDS011;20128;45.582;5.298;2023-09-07T13:35:42;7.70;;;2.67;;
33826;SDS011;20128;45.582;5.298;2023-09-07T13:38:08;5.47;;;2.88;;
33826;SDS011;20128;45.582;5.298;2023-09-07T13:40:34;6.13;;;3.22;;
33826;SDS011;20128;45.582;5.298;2023-09-07T13:43:00;10.95;;;2.70;;
33826;SDS011;20128;45.582;5.298;2023-09-07T13:45:25;8.60;;;2.92;;
33826;SDS011;20128;45.582;5.298;2023-09-07T13:47:51;4.85;;;2.92;;
33826;SDS011;20128;45.582;5.298;2023-09-07T13:50:17;11.27;;;4.10;;
33826;SDS011;20128;45.582;5.298;2023-09-07T13:52:42;6.80;;;3.00;;
33826;SDS011;20128;45.582;5.298;2023-09-07T13:55:08;4.32;;;2.80;;
33826;SDS011;20128;45.582;5.298;2023-09-07T13:57:34;8.05;;;3.20;;
33826;SDS011;20128;45.582;5.298;2023-09-07T13:59:59;11.00;;;3.22;;
33826;SDS011;20128;45.582;5.298;2023-09-07T14:02:25;5.80;;;3.00;;
33826;SDS011;20128;45.582;5.298;2023-09-07T14:04:51;5.70;;;2.70;;
33826;SDS011;20128;45.582;5.298;2023-09-07T14:07:17;6.75;;;3.20;;
33826;SDS011;20128;45.582;5.298;2023-09-07T14:09:43;4.82;;;3.05;;
33826;SDS011;20128;45.582;5.298;2023-09-07T14:12:09;7.00;;;2.95;;
33826;SDS011;20128;45.582;5.298;2023-09-07T14:14:34;9.35;;;3.22;;
33826;SDS011;20128;45.582;5.298;2023-09-07T14:17:01;7.13;;;2.80;;
33826;SDS011;20128;45.582;5.298;2023-09-07T14:19:27;5.75;;;2.78;;
33826;SDS011;20128;45.582;5.298;2023-09-07T14:21:56;6.97;;;2.47;;
33826;SDS011;20128;45.582;5.298;2023-09-07T14:24:22;6.80;;;2.85;;
33826;SDS011;20128;45.582;5.298;2023-09-07T14:26:48;5.47;;;3.17;;
33826;SDS011;20128;45.582;5.298;2023-09-07T14:29:14;4.28;;;2.80;;
33826;SDS011;20128;45.582;5.298;2023-09-07T14:31:39;4.35;;;2.80;;
33826;SDS011;20128;45.582;5.298;2023-09-07T14:34:07;5.32;;;3.00;;
33826;SDS011;20128;45.582;5.298;2023-09-07T14:36:33;4.32;;;2.92;;
33826;SDS011;20128;45.582;5.298;2023-09-07T14:38:58;7.13;;;2.75;;
33826;SDS011;20128;45.582;5.298;2023-09-07T14:41:24;5.38;;;2.75;;